sensor_id;sensor_type;location;lat;lon;timestamp;pressure;altitude;pressure_sealevel;temperature;humidity
46846;BME280;33947;46.804;134.252;2023-01-15T00:01:05;102230.66;;;-30.04;46.45
46846;BME280;33947;46.804;134.252;2023-01-15T00:04:11;102205.88;;;-30.51;48.22
46846;BME280;33947;46.804;134.252;2023-01-15T00:07:15;102217.03;;;-30.27;49.33
46846;BME280;33947;46.804;134.252;2023-01-15T00:10:20;102216.88;;;-29.60;50.72
46846;BME280;33947;46.804;134.252;2023-01-15T00:13:24;102197.97;;;-28.88;51.10
46846;BME280;33947;46.804;134.252;2023-01-15T00:16:28;102202.06;;;-27.89;51.12
46846;BME280;33947;46.804;134.252;2023-01-15T00:19:32;102157.75;;;-26.54;50.07
46846;BME280;33947;46.804;134.252;2023-01-15T00:22:36;102164.66;;;-26.81;48.31
46846;BME280;33947;46.804;134.252;2023-01-15T00:25:40;102174.72;;;-26.23;49.21
46846;BME280;33947;46.804;134.252;2023-01-15T00:29:03;102150.63;;;-25.51;49.86
46846;BME280;33947;46.804;134.252;2023-01-15T00:32:07;102177.97;;;-24.49;46.51
46846;BME280;33947;46.804;134.252;2023-01-15T00:35:13;102170.56;;;-25.09;45.96
46846;BME280;33947;46.804;134.252;2023-01-15T00:38:18;102161.34;;;-24.97;46.70
46846;BME280;33947;46.804;134.252;2023-01-15T00:41:22;102154.19;;;-24.45;47.07
46846;BME280;33947;46.804;134.252;2023-01-15T00:44:26;102159.94;;;-24.09;46.02
46846;BME280;33947;46.804;134.252;2023-01-15T00:47:31;102127.38;;;-23.83;46.04
46846;BME280;33947;46.804;134.252;2023-01-15T00:50:34;102093.50;;;-22.96;45.86
46846;BME280;33947;46.804;134.252;2023-01-15T00:53:38;102151.63;;;-22.69;44.41
46846;BME280;33947;46.804;134.252;2023-01-15T00:56:43;102121.53;;;-22.42;43.87
46846;BME280;33947;46.804;134.252;2023-01-15T00:59:47;102096.97;;;-22.17;43.41
46846;BME280;33947;46.804;134.252;2023-01-15T01:02:51;102114.78;;;-21.62;42.50
46846;BME280;33947;46.804;134.252;2023-01-15T01:06:00;102118.38;;;-20.92;43.36
46846;BME280;33947;46.804;134.252;2023-01-15T01:09:04;102118.59;;;-19.56;41.00
46846;BME280;33947;46.804;134.252;2023-01-15T01:12:09;102108.28;;;-19.79;39.42
46846;BME280;33947;46.804;134.252;2023-01-15T01:15:13;102128.06;;;-20.26;38.84
46846;BME280;33947;46.804;134.252;2023-01-15T01:18:17;102115.50;;;-20.04;40.21
46846;BME280;33947;46.804;134.252;2023-01-15T01:21:21;102129.78;;;-18.88;38.40
46846;BME280;33947;46.804;134.252;2023-01-15T01:24:25;102123.69;;;-19.27;37.07
46846;BME280;33947;46.804;134.252;2023-01-15T01:27:30;102130.31;;;-18.84;38.52
46846;BME280;33947;46.804;134.252;2023-01-15T01:30:36;102110.34;;;-18.66;37.43
46846;BME280;33947;46.804;134.252;2023-01-15T01:33:41;102118.41;;;-18.40;35.38
46846;BME280;33947;46.804;134.252;2023-01-15T01:36:45;102135.41;;;-19.71;36.20
46846;BME280;33947;46.804;134.252;2023-01-15T01:39:49;102088.25;;;-19.70;36.69
46846;BME280;33947;46.804;134.252;2023-01-15T01:42:53;102103.56;;;-18.89;37.14
46846;BME280;33947;46.804;134.252;2023-01-15T01:45:58;102086.06;;;-18.12;36.22
46846;BME280;33947;46.804;134.252;2023-01-15T01:49:06;102080.69;;;-17.22;36.29
46846;BME280;33947;46.804;134.252;2023-01-15T01:52:16;102092.25;;;-16.36;34.14
46846;BME280;33947;46.804;134.252;2023-01-15T01:55:25;102069.63;;;-16.42;33.28
46846;BME280;33947;46.804;134.252;2023-01-15T01:58:31;102046.69;;;-16.99;32.25
46846;BME280;33947;46.804;134.252;2023-01-15T02:01:37;102059.28;;;-17.08;32.16
46846;BME280;33947;46.804;134.252;2023-01-15T02:04:41;102055.94;;;-17.15;33.75
46846;BME280;33947;46.804;134.252;2023-01-15T02:07:46;102060.13;;;-16.52;33.17
46846;BME280;33947;46.804;134.252;2023-01-15T02:10:54;102049.41;;;-16.24;32.56
46846;BME280;33947;46.804;134.252;2023-01-15T02:17:48;102062.13;;;-16.97;33.52
46846;BME280;33947;46.804;134.252;2023-01-15T02:21:18;102051.28;;;-17.04;33.32
46846;BME280;33947;46.804;134.252;2023-01-15T02:31:44;102009.63;;;-18.15;33.36
46846;BME280;33947;46.804;134.252;2023-01-15T02:35:03;102029.31;;;-18.81;31.87
46846;BME280;33947;46.804;134.252;2023-01-15T02:38:14;102001.72;;;-18.63;31.65
46846;BME280;33947;46.804;134.252;2023-01-15T02:41:25;101998.59;;;-18.91;32.12
46846;BME280;33947;46.804;134.252;2023-01-15T02:44:33;102000.69;;;-19.17;32.53
46846;BME280;33947;46.804;134.252;2023-01-15T02:47:41;101991.59;;;-19.01;32.45
46846;BME280;33947;46.804;134.252;2023-01-15T02:50:55;101993.31;;;-19.38;31.88
46846;BME280;33947;46.804;134.252;2023-01-15T02:54:07;101969.88;;;-19.80;33.26
46846;BME280;33947;46.804;134.252;2023-01-15T02:57:14;101962.97;;;-19.74;33.06
46846;BME280;33947;46.804;134.252;2023-01-15T03:00:29;101956.53;;;-20.37;32.79
46846;BME280;33947;46.804;134.252;2023-01-15T03:03:55;101967.91;;;-20.26;33.82
46846;BME280;33947;46.804;134.252;2023-01-15T03:10:17;101953.09;;;-19.87;33.36
46846;BME280;33947;46.804;134.252;2023-01-15T03:13:34;101940.44;;;-20.52;34.57
46846;BME280;33947;46.804;134.252;2023-01-15T03:16:53;101895.25;;;-20.71;34.70
46846;BME280;33947;46.804;134.252;2023-01-15T03:20:13;101912.00;;;-21.07;34.22
46846;BME280;33947;46.804;134.252;2023-01-15T03:23:23;101919.66;;;-20.64;34.88
46846;BME280;33947;46.804;134.252;2023-01-15T03:26:30;101906.81;;;-20.73;35.20
46846;BME280;33947;46.804;134.252;2023-01-15T03:29:37;101879.78;;;-20.52;34.63
46846;BME280;33947;46.804;134.252;2023-01-15T03:32:43;101904.34;;;-20.36;33.71
46846;BME280;33947;46.804;134.252;2023-01-15T03:35:57;101914.47;;;-20.15;35.02
46846;BME280;33947;46.804;134.252;2023-01-15T03:39:15;101901.28;;;-20.34;35.01
46846;BME280;33947;46.804;134.252;2023-01-15T03:42:57;101886.66;;;-20.58;35.00
46846;BME280;33947;46.804;134.252;2023-01-15T03:46:37;101886.09;;;-20.27;34.26
46846;BME280;33947;46.804;134.252;2023-01-15T03:53:20;101867.69;;;-20.47;34.62
46846;BME280;33947;46.804;134.252;2023-01-15T03:56:37;101855.41;;;-20.23;34.10
46846;BME280;33947;46.804;134.252;2023-01-15T04:00:10;101833.22;;;-20.54;34.32
46846;BME280;33947;46.804;134.252;2023-01-15T04:03:24;101835.31;;;-19.99;34.79
46846;BME280;33947;46.804;134.252;2023-01-15T04:06:31;101830.09;;;-20.08;34.83
46846;BME280;33947;46.804;134.252;2023-01-15T04:09:38;101825.88;;;-19.86;35.39
46846;BME280;33947;46.804;134.252;2023-01-15T04:12:45;101804.00;;;-19.85;34.59
46846;BME280;33947;46.804;134.252;2023-01-15T04:15:50;101805.09;;;-19.83;34.46
46846;BME280;33947;46.804;134.252;2023-01-15T04:18:55;101814.38;;;-19.98;34.34
46846;BME280;33947;46.804;134.252;2023-01-15T04:22:01;101717.38;;;-20.73;34.72
46846;BME280;33947;46.804;134.252;2023-01-15T04:25:05;101715.84;;;-20.20;34.97
46846;BME280;33947;46.804;134.252;2023-01-15T04:28:28;101813.03;;;-19.35;33.96
46846;BME280;33947;46.804;134.252;2023-01-15T04:31:32;101781.53;;;-20.05;33.65
46846;BME280;33947;46.804;134.252;2023-01-15T04:34:38;101791.78;;;-19.59;34.50
46846;BME280;33947;46.804;134.252;2023-01-15T04:37:42;101798.91;;;-19.33;33.92
46846;BME280;33947;46.804;134.252;2023-01-15T04:40:46;101785.22;;;-19.42;34.31
46846;BME280;33947;46.804;134.252;2023-01-15T04:44:09;101764.66;;;-19.53;34.47
46846;BME280;33947;46.804;134.252;2023-01-15T04:47:13;101772.81;;;-19.55;34.34
46846;BME280;33947;46.804;134.252;2023-01-15T04:50:17;101728.13;;;-19.47;33.21
46846;BME280;33947;46.804;134.252;2023-01-15T04:53:21;101770.97;;;-18.95;33.62
46846;BME280;33947;46.804;134.252;2023-01-15T04:56:25;101738.09;;;-19.87;33.05
46846;BME280;33947;46.804;134.252;2023-01-15T04:59:29;101761.81;;;-19.63;34.32
46846;BME280;33947;46.804;134.252;2023-01-15T05:02:33;101730.81;;;-19.46;34.05
46846;BME280;33947;46.804;134.252;2023-01-15T05:05:37;101737.56;;;-19.23;33.67
46846;BME280;33947;46.804;134.252;2023-01-15T05:08:41;101746.28;;;-19.66;33.77
46846;BME280;33947;46.804;134.252;2023-01-15T05:11:45;101740.94;;;-19.76;34.29
46846;BME280;33947;46.804;134.252;2023-01-15T05:14:48;101729.72;;;-19.78;34.05
46846;BME280;33947;46.804;134.252;2023-01-15T05:17:52;101711.44;;;-19.69;34.52
46846;BME280;33947;46.804;134.252;2023-01-15T05:20:57;101732.91;;;-19.34;34.39
46846;BME280;33947;46.804;134.252;2023-01-15T05:24:03;101755.25;;;-19.54;34.82
46846;BME280;33947;46.804;134.252;2023-01-15T05:27:07;101749.50;;;-19.60;34.77
46846;BME280;33947;46.804;134.252;2023-01-15T05:30:11;101745.19;;;-19.61;35.40
46846;BME280;33947;46.804;134.252;2023-01-15T05:33:16;101727.00;;;-19.42;34.36
46846;BME280;33947;46.804;134.252;2023-01-15T05:36:24;101728.09;;;-19.78;35.22
46846;BME280;33947;46.804;134.252;2023-01-15T05:39:28;101728.22;;;-19.39;35.68
46846;BME280;33947;46.804;134.252;2023-01-15T05:42:32;101695.50;;;-19.98;35.08
46846;BME280;33947;46.804;134.252;2023-01-15T05:45:36;101745.84;;;-19.55;35.46
46846;BME280;33947;46.804;134.252;2023-01-15T05:48:41;101713.06;;;-19.69;35.59
46846;BME280;33947;46.804;134.252;2023-01-15T05:51:45;101738.97;;;-19.48;35.98
46846;BME280;33947;46.804;134.252;2023-01-15T05:54:49;101713.44;;;-19.73;34.79
46846;BME280;33947;46.804;134.252;2023-01-15T05:57:53;101702.59;;;-20.03;35.44
46846;BME280;33947;46.804;134.252;2023-01-15T06:05:18;101724.97;;;-19.68;35.09
46846;BME280;33947;46.804;134.252;2023-01-15T06:08:23;101697.53;;;-19.72;35.46
46846;BME280;33947;46.804;134.252;2023-01-15T06:11:27;101706.69;;;-19.96;34.74
46846;BME280;33947;46.804;134.252;2023-01-15T06:14:31;101719.66;;;-19.86;35.15
46846;BME280;33947;46.804;134.252;2023-01-15T06:17:35;101719.34;;;-19.96;36.25
46846;BME280;33947;46.804;134.252;2023-01-15T06:20:40;101702.41;;;-20.04;36.00
46846;BME280;33947;46.804;134.252;2023-01-15T06:23:45;101726.50;;;-19.85;36.18
46846;BME280;33947;46.804;134.252;2023-01-15T06:26:49;101674.66;;;-20.19;35.98
46846;BME280;33947;46.804;134.252;2023-01-15T06:29:53;101680.69;;;-19.95;36.61
46846;BME280;33947;46.804;134.252;2023-01-15T06:32:58;101720.94;;;-19.59;35.80
46846;BME280;33947;46.804;134.252;2023-01-15T06:36:07;101721.34;;;-19.93;35.34
46846;BME280;33947;46.804;134.252;2023-01-15T06:39:11;101705.38;;;-20.23;36.39
46846;BME280;33947;46.804;134.252;2023-01-15T06:42:15;101701.69;;;-20.03;35.86
46846;BME280;33947;46.804;134.252;2023-01-15T06:45:40;101722.00;;;-19.57;36.33
46846;BME280;33947;46.804;134.252;2023-01-15T06:49:03;101687.34;;;-20.26;36.50
46846;BME280;33947;46.804;134.252;2023-01-15T06:52:06;101682.91;;;-20.05;36.42
46846;BME280;33947;46.804;134.252;2023-01-15T06:55:11;101685.31;;;-19.84;36.44
46846;BME280;33947;46.804;134.252;2023-01-15T06:58:15;101684.31;;;-19.70;35.68
46846;BME280;33947;46.804;134.252;2023-01-15T07:01:19;101695.03;;;-19.49;35.61
46846;BME280;33947;46.804;134.252;2023-01-15T07:04:23;101703.41;;;-19.88;35.47
46846;BME280;33947;46.804;134.252;2023-01-15T07:07:28;101715.44;;;-19.78;35.37
46846;BME280;33947;46.804;134.252;2023-01-15T07:10:35;101685.66;;;-19.81;34.96
46846;BME280;33947;46.804;134.252;2023-01-15T07:13:39;101694.22;;;-19.64;34.56
46846;BME280;33947;46.804;134.252;2023-01-15T07:16:43;101683.66;;;-20.14;34.79
46846;BME280;33947;46.804;134.252;2023-01-15T07:19:47;101693.84;;;-20.35;34.75
46846;BME280;33947;46.804;134.252;2023-01-15T07:22:51;101690.66;;;-20.56;35.87
46846;BME280;33947;46.804;134.252;2023-01-15T07:25:55;101698.88;;;-20.21;35.29
46846;BME280;33947;46.804;134.252;2023-01-15T07:28:59;101682.44;;;-20.25;35.11
46846;BME280;33947;46.804;134.252;2023-01-15T07:32:04;101703.44;;;-20.47;34.78
46846;BME280;33947;46.804;134.252;2023-01-15T07:35:08;101685.97;;;-20.53;35.57
46846;BME280;33947;46.804;134.252;2023-01-15T07:38:13;101704.53;;;-20.53;35.31
46846;BME280;33947;46.804;134.252;2023-01-15T07:41:17;101693.53;;;-20.68;35.02
46846;BME280;33947;46.804;134.252;2023-01-15T07:44:40;101686.75;;;-20.83;34.97
46846;BME280;33947;46.804;134.252;2023-01-15T07:48:02;101705.66;;;-20.72;35.16
46846;BME280;33947;46.804;134.252;2023-01-15T07:51:24;101698.16;;;-21.08;35.08
46846;BME280;33947;46.804;134.252;2023-01-15T07:54:28;101703.00;;;-20.95;35.41
46846;BME280;33947;46.804;134.252;2023-01-15T07:57:32;101704.38;;;-20.76;35.67
46846;BME280;33947;46.804;134.252;2023-01-15T08:00:36;101684.78;;;-20.93;35.53
46846;BME280;33947;46.804;134.252;2023-01-15T08:03:43;101709.50;;;-20.90;34.87
46846;BME280;33947;46.804;134.252;2023-01-15T08:06:47;101631.59;;;-21.60;35.36
46846;BME280;33947;46.804;134.252;2023-01-15T08:09:55;101656.31;;;-21.64;35.78
46846;BME280;33947;46.804;134.252;2023-01-15T08:12:59;101693.44;;;-21.27;35.99
46846;BME280;33947;46.804;134.252;2023-01-15T08:16:21;101687.13;;;-21.38;35.75
46846;BME280;33947;46.804;134.252;2023-01-15T08:19:25;101695.19;;;-21.84;35.67
46846;BME280;33947;46.804;134.252;2023-01-15T08:22:32;101661.91;;;-21.74;36.37
46846;BME280;33947;46.804;134.252;2023-01-15T08:25:36;101704.34;;;-21.85;35.57
46846;BME280;33947;46.804;134.252;2023-01-15T08:28:42;101699.50;;;-21.76;36.35
46846;BME280;33947;46.804;134.252;2023-01-15T08:31:47;101697.47;;;-22.00;36.70
46846;BME280;33947;46.804;134.252;2023-01-15T08:34:51;101709.63;;;-21.54;36.23
46846;BME280;33947;46.804;134.252;2023-01-15T08:37:55;101704.59;;;-21.40;35.63
46846;BME280;33947;46.804;134.252;2023-01-15T08:40:59;101655.91;;;-21.60;35.43
46846;BME280;33947;46.804;134.252;2023-01-15T08:44:05;101711.25;;;-21.55;35.80
46846;BME280;33947;46.804;134.252;2023-01-15T08:47:10;101697.44;;;-22.07;36.04
46846;BME280;33947;46.804;134.252;2023-01-15T08:50:14;101701.47;;;-21.88;36.40
46846;BME280;33947;46.804;134.252;2023-01-15T08:53:19;101712.09;;;-21.83;36.12
46846;BME280;33947;46.804;134.252;2023-01-15T08:56:23;101685.66;;;-21.72;35.72
46846;BME280;33947;46.804;134.252;2023-01-15T08:59:27;101693.78;;;-21.53;35.64
46846;BME280;33947;46.804;134.252;2023-01-15T09:02:31;101681.84;;;-21.61;35.38
46846;BME280;33947;46.804;134.252;2023-01-15T09:05:36;101714.84;;;-21.52;35.43
46846;BME280;33947;46.804;134.252;2023-01-15T09:08:40;101651.19;;;-22.01;35.37
46846;BME280;33947;46.804;134.252;2023-01-15T09:11:46;101693.41;;;-21.63;35.32
46846;BME280;33947;46.804;134.252;2023-01-15T09:14:49;101709.06;;;-21.59;35.06
46846;BME280;33947;46.804;134.252;2023-01-15T09:18:05;101719.88;;;-21.60;35.15
46846;BME280;33947;46.804;134.252;2023-01-15T09:21:09;101675.88;;;-21.98;35.35
46846;BME280;33947;46.804;134.252;2023-01-15T09:24:14;101722.91;;;-22.26;35.49
46846;BME280;33947;46.804;134.252;2023-01-15T09:27:18;101712.69;;;-22.82;37.23
46846;BME280;33947;46.804;134.252;2023-01-15T09:30:23;101714.16;;;-22.77;37.94
46846;BME280;33947;46.804;134.252;2023-01-15T09:33:26;101696.88;;;-23.09;38.73
46846;BME280;33947;46.804;134.252;2023-01-15T09:36:33;101699.47;;;-22.94;38.06
46846;BME280;33947;46.804;134.252;2023-01-15T09:39:37;101699.09;;;-22.43;37.69
46846;BME280;33947;46.804;134.252;2023-01-15T09:42:43;101727.44;;;-22.58;37.25
46846;BME280;33947;46.804;134.252;2023-01-15T09:45:54;101712.13;;;-22.18;36.96
46846;BME280;33947;46.804;134.252;2023-01-15T09:52:17;101719.03;;;-22.51;37.65
46846;BME280;33947;46.804;134.252;2023-01-15T09:55:33;101701.50;;;-22.64;37.86
46846;BME280;33947;46.804;134.252;2023-01-15T09:58:40;101703.06;;;-22.37;37.18
46846;BME280;33947;46.804;134.252;2023-01-15T10:01:47;101683.78;;;-22.37;36.69
46846;BME280;33947;46.804;134.252;2023-01-15T10:05:08;101725.00;;;-22.36;37.02
46846;BME280;33947;46.804;134.252;2023-01-15T10:08:29;101718.91;;;-22.31;36.76
46846;BME280;33947;46.804;134.252;2023-01-15T10:12:03;101706.28;;;-22.46;37.18
46846;BME280;33947;46.804;134.252;2023-01-15T10:15:34;101727.50;;;-22.44;37.27
46846;BME280;33947;46.804;134.252;2023-01-15T10:18:39;101702.47;;;-22.84;37.42
46846;BME280;33947;46.804;134.252;2023-01-15T10:22:15;101723.13;;;-23.67;39.08
46846;BME280;33947;46.804;134.252;2023-01-15T10:25:28;101710.84;;;-24.51;40.86
46846;BME280;33947;46.804;134.252;2023-01-15T10:28:52;101692.94;;;-24.80;41.81
46846;BME280;33947;46.804;134.252;2023-01-15T10:35:44;101696.16;;;-25.25;42.27
46846;BME280;33947;46.804;134.252;2023-01-15T10:39:24;101722.16;;;-25.25;42.05
46846;BME280;33947;46.804;134.252;2023-01-15T10:45:56;101706.00;;;-25.58;42.46
46846;BME280;33947;46.804;134.252;2023-01-15T10:49:14;101716.72;;;-25.59;42.76
46846;BME280;33947;46.804;134.252;2023-01-15T10:52:44;101713.34;;;-25.79;42.71
46846;BME280;33947;46.804;134.252;2023-01-15T10:55:53;101674.31;;;-26.40;42.49
46846;BME280;33947;46.804;134.252;2023-01-15T11:02:36;101709.59;;;-26.44;43.67
46846;BME280;33947;46.804;134.252;2023-01-15T11:05:43;101730.13;;;-26.52;43.62
46846;BME280;33947;46.804;134.252;2023-01-15T11:08:51;101718.59;;;-26.57;44.09
46846;BME280;33947;46.804;134.252;2023-01-15T11:12:22;101699.63;;;-26.68;44.82
46846;BME280;33947;46.804;134.252;2023-01-15T11:15:29;101714.47;;;-26.51;44.05
46846;BME280;33947;46.804;134.252;2023-01-15T11:18:53;101689.75;;;-26.61;43.92
46846;BME280;33947;46.804;134.252;2023-01-15T11:22:17;101700.97;;;-26.70;44.04
46846;BME280;33947;46.804;134.252;2023-01-15T11:25:27;101689.28;;;-26.83;44.42
46846;BME280;33947;46.804;134.252;2023-01-15T11:28:40;101689.47;;;-27.00;43.92
46846;BME280;33947;46.804;134.252;2023-01-15T11:31:50;101701.38;;;-26.86;44.25
46846;BME280;33947;46.804;134.252;2023-01-15T11:35:09;101653.78;;;-27.29;44.22
46846;BME280;33947;46.804;134.252;2023-01-15T11:38:17;101697.75;;;-27.12;44.98
46846;BME280;33947;46.804;134.252;2023-01-15T11:44:56;101693.31;;;-26.96;44.07
46846;BME280;33947;46.804;134.252;2023-01-15T11:48:22;101696.63;;;-27.14;43.88
46846;BME280;33947;46.804;134.252;2023-01-15T11:51:47;101677.59;;;-27.19;44.37
46846;BME280;33947;46.804;134.252;2023-01-15T11:54:54;101700.38;;;-27.29;44.31
46846;BME280;33947;46.804;134.252;2023-01-15T11:58:00;101698.56;;;-27.60;44.52
46846;BME280;33947;46.804;134.252;2023-01-15T12:01:04;101688.69;;;-27.47;44.90
46846;BME280;33947;46.804;134.252;2023-01-15T12:04:44;101690.13;;;-27.55;45.08
46846;BME280;33947;46.804;134.252;2023-01-15T12:07:52;101708.84;;;-27.40;44.39
46846;BME280;33947;46.804;134.252;2023-01-15T12:18:53;101711.47;;;-27.99;45.27
46846;BME280;33947;46.804;134.252;2023-01-15T12:31:37;101718.28;;;-27.92;45.21
46846;BME280;33947;46.804;134.252;2023-01-15T12:38:41;101702.63;;;-27.96;45.01
46846;BME280;33947;46.804;134.252;2023-01-15T12:41:53;101646.75;;;-28.86;45.90
46846;BME280;33947;46.804;134.252;2023-01-15T12:45:20;101686.94;;;-28.37;46.15
46846;BME280;33947;46.804;134.252;2023-01-15T12:48:34;101705.81;;;-27.98;44.73
46846;BME280;33947;46.804;134.252;2023-01-15T12:51:52;101710.59;;;-27.99;44.41
46846;BME280;33947;46.804;134.252;2023-01-15T12:55:21;101663.97;;;-28.17;44.54
46846;BME280;33947;46.804;134.252;2023-01-15T13:02:25;101699.88;;;-27.51;43.28
46846;BME280;33947;46.804;134.252;2023-01-15T13:05:37;101678.69;;;-27.72;43.52
46846;BME280;33947;46.804;134.252;2023-01-15T13:12:12;101686.06;;;-28.49;45.51
46846;BME280;33947;46.804;134.252;2023-01-15T13:15:19;101683.38;;;-28.50;46.06
46846;BME280;33947;46.804;134.252;2023-01-15T13:18:40;101697.78;;;-28.25;46.26
46846;BME280;33947;46.804;134.252;2023-01-15T13:21:49;101683.59;;;-28.66;46.93
46846;BME280;33947;46.804;134.252;2023-01-15T13:35:06;101697.97;;;-29.10;49.01
46846;BME280;33947;46.804;134.252;2023-01-15T13:38:18;101643.44;;;-29.60;49.51
46846;BME280;33947;46.804;134.252;2023-01-15T13:41:26;101663.84;;;-29.40;49.05
46846;BME280;33947;46.804;134.252;2023-01-15T13:44:51;101637.75;;;-29.13;47.90
46846;BME280;33947;46.804;134.252;2023-01-15T13:48:01;101681.00;;;-29.13;48.25
46846;BME280;33947;46.804;134.252;2023-01-15T13:51:46;101687.13;;;-29.17;48.13
46846;BME280;33947;46.804;134.252;2023-01-15T13:54:45;101675.31;;;-29.01;48.03
46846;BME280;33947;46.804;134.252;2023-01-15T13:57:49;101664.47;;;-29.24;47.90
46846;BME280;33947;46.804;134.252;2023-01-15T14:01:19;101674.66;;;-28.99;48.22
46846;BME280;33947;46.804;134.252;2023-01-15T14:04:51;101669.91;;;-29.32;47.90
46846;BME280;33947;46.804;134.252;2023-01-15T14:07:57;101665.81;;;-29.32;48.05
46846;BME280;33947;46.804;134.252;2023-01-15T14:11:01;101670.56;;;-29.27;48.04
46846;BME280;33947;46.804;134.252;2023-01-15T14:20:52;101690.81;;;-30.21;49.12
46846;BME280;33947;46.804;134.252;2023-01-15T14:27:58;101657.19;;;-29.85;48.89
46846;BME280;33947;46.804;134.252;2023-01-15T14:31:36;101656.56;;;-29.72;48.41
46846;BME280;33947;46.804;134.252;2023-01-15T14:34:43;101667.00;;;-29.41;48.19
46846;BME280;33947;46.804;134.252;2023-01-15T14:38:02;101657.19;;;-29.85;48.69
46846;BME280;33947;46.804;134.252;2023-01-15T14:41:08;101638.47;;;-29.66;47.40
46846;BME280;33947;46.804;134.252;2023-01-15T14:44:14;101666.97;;;-29.58;47.14
46846;BME280;33947;46.804;134.252;2023-01-15T14:47:49;101609.28;;;-29.72;46.22
46846;BME280;33947;46.804;134.252;2023-01-15T14:50:51;101645.94;;;-29.71;46.72
46846;BME280;33947;46.804;134.252;2023-01-15T14:53:57;101648.91;;;-29.51;46.84
46846;BME280;33947;46.804;134.252;2023-01-15T14:57:06;101639.16;;;-29.44;45.83
46846;BME280;33947;46.804;134.252;2023-01-15T15:00:16;101647.25;;;-30.02;46.25
46846;BME280;33947;46.804;134.252;2023-01-15T15:03:33;101628.38;;;-30.40;47.64
46846;BME280;33947;46.804;134.252;2023-01-15T15:06:53;101635.22;;;-30.16;47.45
46846;BME280;33947;46.804;134.252;2023-01-15T15:16:35;101618.28;;;-30.13;47.33
46846;BME280;33947;46.804;134.252;2023-01-15T15:19:48;101599.97;;;-30.19;47.66
46846;BME280;33947;46.804;134.252;2023-01-15T15:26:44;101628.22;;;-30.13;47.14
46846;BME280;33947;46.804;134.252;2023-01-15T15:29:49;101617.38;;;-30.25;48.10
46846;BME280;33947;46.804;134.252;2023-01-15T15:32:54;101633.25;;;-30.01;47.96
46846;BME280;33947;46.804;134.252;2023-01-15T15:36:00;101638.09;;;-30.47;49.27
46846;BME280;33947;46.804;134.252;2023-01-15T15:39:19;101583.44;;;-30.97;50.59
46846;BME280;33947;46.804;134.252;2023-01-15T15:42:30;101625.03;;;-30.23;50.39
46846;BME280;33947;46.804;134.252;2023-01-15T15:45:55;101602.47;;;-30.13;49.29
46846;BME280;33947;46.804;134.252;2023-01-15T15:49:18;101622.75;;;-30.33;49.31
46846;BME280;33947;46.804;134.252;2023-01-15T15:52:24;101617.31;;;-30.36;49.89
46846;BME280;33947;46.804;134.252;2023-01-15T15:55:38;101630.47;;;-30.26;49.46
46846;BME280;33947;46.804;134.252;2023-01-15T15:58:44;101640.66;;;-30.19;49.11
46846;BME280;33947;46.804;134.252;2023-01-15T16:01:48;101611.44;;;-30.31;49.13
46846;BME280;33947;46.804;134.252;2023-01-15T16:04:56;101626.22;;;-29.98;48.96
46846;BME280;33947;46.804;134.252;2023-01-15T16:11:19;101621.69;;;-29.84;48.48
46846;BME280;33947;46.804;134.252;2023-01-15T16:14:25;101571.31;;;-30.84;48.55
46846;BME280;33947;46.804;134.252;2023-01-15T16:17:30;101596.66;;;-30.69;49.52
46846;BME280;33947;46.804;134.252;2023-01-15T16:20:34;101622.38;;;-30.74;50.21
46846;BME280;33947;46.804;134.252;2023-01-15T16:23:39;101614.97;;;-30.57;50.17
46846;BME280;33947;46.804;134.252;2023-01-15T16:26:53;101619.75;;;-30.59;50.22
46846;BME280;33947;46.804;134.252;2023-01-15T16:30:00;101606.53;;;-30.86;51.03
46846;BME280;33947;46.804;134.252;2023-01-15T16:33:06;101589.44;;;-30.68;50.77
46846;BME280;33947;46.804;134.252;2023-01-15T16:36:11;101583.13;;;-31.15;50.50
46846;BME280;33947;46.804;134.252;2023-01-15T16:39:38;101625.53;;;-30.81;50.75
46846;BME280;33947;46.804;134.252;2023-01-15T16:42:44;101619.69;;;-30.70;49.92
46846;BME280;33947;46.804;134.252;2023-01-15T16:46:16;101604.66;;;-30.99;49.56
46846;BME280;33947;46.804;134.252;2023-01-15T16:52:50;101611.38;;;-31.09;49.68
46846;BME280;33947;46.804;134.252;2023-01-15T16:55:54;101599.69;;;-31.43;50.30
46846;BME280;33947;46.804;134.252;2023-01-15T16:59:00;101629.34;;;-31.60;51.06
46846;BME280;33947;46.804;134.252;2023-01-15T17:02:14;101612.72;;;-31.11;50.95
46846;BME280;33947;46.804;134.252;2023-01-15T17:05:22;101632.56;;;-31.11;50.72
46846;BME280;33947;46.804;134.252;2023-01-15T17:08:35;101639.00;;;-31.61;51.35
46846;BME280;33947;46.804;134.252;2023-01-15T17:11:40;101637.19;;;-31.62;51.34
46846;BME280;33947;46.804;134.252;2023-01-15T17:14:45;101611.78;;;-31.50;51.64
46846;BME280;33947;46.804;134.252;2023-01-15T17:17:50;101629.91;;;-31.07;51.55
46846;BME280;33947;46.804;134.252;2023-01-15T17:20:55;101596.78;;;-30.91;50.46
46846;BME280;33947;46.804;134.252;2023-01-15T17:23:59;101636.59;;;-30.79;49.79
46846;BME280;33947;46.804;134.252;2023-01-15T17:27:04;101628.19;;;-30.91;49.67
46846;BME280;33947;46.804;134.252;2023-01-15T17:30:11;101614.16;;;-30.96;50.05
46846;BME280;33947;46.804;134.252;2023-01-15T17:33:15;101594.50;;;-30.95;50.29
46846;BME280;33947;46.804;134.252;2023-01-15T17:36:20;101609.81;;;-30.59;49.65
46846;BME280;33947;46.804;134.252;2023-01-15T17:39:25;101617.25;;;-30.65;48.78